createdAt,value
2019-02-12T00:01:40.248Z,79156.75
2019-02-12T00:04:11.552Z,79143.67
2019-02-12T00:06:42.829Z,79122.55
2019-02-12T00:09:14.118Z,79117.52
2019-02-12T00:11:45.413Z,79097.41
2019-02-12T00:14:16.665Z,79105.45
2019-02-12T00:16:47.861Z,79100.42
2019-02-12T00:19:19.112Z,79086.34
2019-02-12T00:21:50.431Z,79072.26
2019-02-12T00:24:21.691Z,79042.09
2019-02-12T00:26:52.994Z,79025.99
2019-02-12T00:29:24.236Z,79000.84
2019-02-12T00:31:55.582Z,78996.83
2019-02-12T00:34:26.866Z,78997.83
2019-02-12T00:36:58.143Z,78992.80
2019-02-12T00:39:29.391Z,78983.75
2019-02-12T00:42:00.723Z,78973.69
2019-02-12T00:44:31.983Z,78965.64
2019-02-12T00:47:03.234Z,78961.63
2019-02-12T00:49:34.448Z,78969.67
2019-02-12T00:52:05.737Z,78960.61
2019-02-12T00:54:37.065Z,78963.63
2019-02-12T00:57:08.430Z,78967.66
2019-02-12T00:59:39.742Z,78965.64
2019-02-12T01:02:11.095Z,78969.67
2019-02-12T01:04:42.383Z,78972.69
2019-02-12T01:07:13.659Z,78966.65
2019-02-12T01:09:44.960Z,78988.78
2019-02-12T01:12:16.327Z,79013.92
2019-02-12T01:14:47.611Z,79016.94
2019-02-12T01:17:18.907Z,79027.00
2019-02-12T01:19:50.234Z,79053.15
2019-02-12T01:22:21.468Z,79061.20
2019-02-12T01:24:52.716Z,79041.08
2019-02-12T01:27:23.902Z,79015.94
2019-02-12T01:29:55.317Z,79000.84
2019-02-12T01:32:26.545Z,79003.86
2019-02-12T01:34:57.813Z,78985.76
2019-02-12T01:37:29.085Z,78991.80
2019-02-12T01:40:00.309Z,79004.88
2019-02-12T01:42:31.584Z,78983.75
2019-02-12T01:45:02.856Z,78974.70
2019-02-12T01:47:34.160Z,78990.79
2019-02-12T01:50:10.336Z,78988.78
2019-02-12T01:52:41.712Z,79009.90
2019-02-12T01:55:12.954Z,79016.94
2019-02-12T01:57:44.294Z,79037.05
2019-02-12T02:00:16.707Z,79044.09
2019-02-12T02:02:48.021Z,79066.22
2019-02-12T02:05:19.265Z,79087.34
2019-02-12T02:07:50.460Z,79117.52
2019-02-12T02:10:21.611Z,79109.47
2019-02-12T02:12:52.951Z,79112.49
2019-02-12T02:15:24.234Z,79109.47
2019-02-12T02:17:55.511Z,79137.64
2019-02-12T02:20:26.921Z,79167.81
2019-02-12T02:22:58.139Z,79182.90
2019-02-12T02:25:29.406Z,79209.05
2019-02-12T02:28:00.625Z,79234.20
2019-02-12T02:30:31.913Z,79233.19
2019-02-12T02:33:03.240Z,79229.17
2019-02-12T02:35:34.523Z,79221.13
2019-02-12T02:38:05.701Z,79226.16
2019-02-12T02:40:37.055Z,79229.17
2019-02-12T02:43:08.326Z,79227.16
2019-02-12T02:45:39.615Z,79204.02
2019-02-12T02:48:10.877Z,79214.08
2019-02-12T02:50:42.173Z,79219.11
2019-02-12T02:53:13.424Z,79236.21
2019-02-12T02:55:44.711Z,79248.28
2019-02-12T02:58:16.032Z,79256.33
2019-02-12T03:00:47.322Z,79270.41
2019-02-12T03:03:18.658Z,79274.44
2019-02-12T03:05:49.908Z,79268.40
2019-02-12T03:08:21.218Z,79241.24
2019-02-12T03:10:52.467Z,79246.27
2019-02-12T03:13:23.789Z,79251.30
2019-02-12T03:15:55.180Z,79274.44
2019-02-12T03:18:26.466Z,79282.48
2019-02-12T03:20:57.701Z,79292.54
2019-02-12T03:23:28.988Z,79317.69
2019-02-12T03:26:00.260Z,79298.58
2019-02-12T03:28:32.528Z,79286.50
2019-02-12T03:31:03.826Z,79292.54
2019-02-12T03:33:35.110Z,79288.52
2019-02-12T03:36:06.415Z,79302.59
2019-02-12T03:38:39.736Z,79305.62
2019-02-12T03:41:10.762Z,79297.56
2019-02-12T03:43:42.037Z,79307.63
2019-02-12T03:46:13.395Z,79298.58
2019-02-12T03:48:44.676Z,79316.68
2019-02-12T03:51:16.037Z,79299.58
2019-02-12T03:53:47.297Z,79306.63
2019-02-12T03:56:18.548Z,79320.70
2019-02-12T03:58:50.243Z,79333.78
2019-02-12T04:01:22.057Z,79355.91
2019-02-12T04:03:53.926Z,79356.91
2019-02-12T04:06:25.232Z,79350.88
2019-02-12T04:08:56.553Z,79338.81
2019-02-12T04:11:27.926Z,79315.67
2019-02-12T04:13:59.263Z,79316.68
2019-02-12T04:16:30.648Z,79308.63
2019-02-12T04:19:01.905Z,79333.78
2019-02-12T04:21:33.205Z,79356.91
2019-02-12T04:24:04.642Z,79361.95
2019-02-12T04:26:35.900Z,79374.02
2019-02-12T04:29:11.423Z,79368.98
2019-02-12T04:31:42.684Z,79351.89
2019-02-12T04:34:13.998Z,79320.70
2019-02-12T04:36:45.216Z,79323.72
2019-02-12T04:39:16.491Z,79334.78
2019-02-12T04:41:47.798Z,79322.72
2019-02-12T04:44:19.136Z,79328.75
2019-02-12T04:46:50.437Z,79354.91
2019-02-12T04:49:21.746Z,79335.80
2019-02-12T04:51:52.987Z,79331.77
2019-02-12T04:54:24.346Z,79349.88
2019-02-12T04:56:55.537Z,79357.92
2019-02-12T04:59:29.204Z,79358.92
2019-02-12T05:02:00.496Z,79349.88
2019-02-12T05:04:31.747Z,79345.85
2019-02-12T05:07:03.034Z,79352.89
2019-02-12T05:09:35.508Z,79360.94
2019-02-12T05:12:08.365Z,79360.94
2019-02-12T05:14:39.575Z,79344.84
2019-02-12T05:17:10.751Z,79327.75
2019-02-12T05:19:42.035Z,79330.77
2019-02-12T05:22:13.334Z,79323.72
2019-02-12T05:24:44.572Z,79326.73
2019-02-12T05:27:15.883Z,79336.80
2019-02-12T05:29:48.137Z,79333.78
2019-02-12T05:32:19.437Z,79331.77
2019-02-12T05:35:09.690Z,79327.75
2019-02-12T05:37:40.990Z,79335.80
2019-02-12T05:40:12.340Z,79334.78
2019-02-12T05:42:43.623Z,79338.81
2019-02-12T05:45:14.932Z,79343.84
2019-02-12T05:47:46.162Z,79309.64
2019-02-12T05:50:17.498Z,79332.77
2019-02-12T05:52:54.265Z,79314.67
2019-02-12T05:55:21.655Z,79334.78
2019-02-12T05:57:52.938Z,79331.77
2019-02-12T06:00:26.551Z,79323.72
2019-02-12T06:02:57.821Z,79321.70
2019-02-12T06:05:30.565Z,79321.70
2019-02-12T06:08:01.907Z,79301.59
2019-02-12T06:10:33.101Z,79297.56
2019-02-12T06:13:04.427Z,79301.59
2019-02-12T06:15:35.667Z,79327.75
2019-02-12T06:18:06.977Z,79338.81
2019-02-12T06:20:38.308Z,79327.75
2019-02-12T06:23:09.585Z,79337.80
2019-02-12T06:25:40.881Z,79345.85
2019-02-12T06:28:12.201Z,79349.88
2019-02-12T06:30:44.061Z,79344.84
2019-02-12T06:33:15.569Z,79338.81
2019-02-12T06:35:46.871Z,79341.83
2019-02-12T06:38:18.162Z,79330.77
2019-02-12T06:40:49.683Z,79308.63
2019-02-12T06:43:20.984Z,79309.64
2019-02-12T06:45:52.651Z,79317.69
2019-02-12T06:48:23.819Z,79318.69
2019-02-12T06:50:55.142Z,79307.63
2019-02-12T06:53:26.436Z,79317.69
2019-02-12T06:55:57.793Z,79311.66
2019-02-12T06:58:29.082Z,79315.67
2019-02-12T07:01:02.787Z,79306.63
2019-02-12T07:04:04.667Z,79306.63
2019-02-12T07:07:57.132Z,79303.61
2019-02-12T07:10:35.634Z,79297.56
2019-02-12T07:14:01.709Z,79305.62
2019-02-12T07:17:28.810Z,79315.67
2019-02-12T07:21:21.373Z,79306.63
2019-02-12T07:24:49.346Z,79306.63
2019-02-12T07:28:28.738Z,79292.54
2019-02-12T07:31:53.515Z,79284.49
2019-02-12T07:35:14.703Z,79272.42
2019-02-12T07:38:57.590Z,79267.39
2019-02-12T07:42:42.615Z,79262.36
2019-02-12T07:46:15.882Z,79243.25
2019-02-12T07:49:23.940Z,79250.30
2019-02-12T07:52:50.838Z,79247.27
2019-02-12T07:56:03.061Z,79240.23
2019-02-12T07:59:33.145Z,79238.22
2019-02-12T08:02:54.041Z,79240.23
2019-02-12T08:05:52.874Z,79225.14
2019-02-12T08:09:22.842Z,79237.22
2019-02-12T08:12:47.444Z,79232.19
2019-02-12T08:15:53.378Z,79226.16
2019-02-12T08:19:05.831Z,79245.27
2019-02-12T08:22:17.128Z,79225.14
2019-02-12T08:25:37.794Z,79220.12
2019-02-12T08:29:19.755Z,79212.07
2019-02-12T08:32:39.253Z,79195.98
2019-02-12T08:35:57.206Z,79187.93
2019-02-12T08:39:10.248Z,79181.89
2019-02-12T08:42:27.726Z,79178.88
2019-02-12T08:45:46.953Z,79172.84
2019-02-12T08:49:02.078Z,79145.69
2019-02-12T08:52:03.083Z,79150.72
2019-02-12T08:55:36.734Z,79122.55
2019-02-12T08:59:09.386Z,79122.55
2019-02-12T09:02:01.970Z,79130.59
2019-02-12T09:05:22.225Z,79127.58
2019-02-12T09:08:15.092Z,79129.59
2019-02-12T09:12:22.693Z,79107.47
2019-02-12T09:15:44.785Z,79100.42
2019-02-12T09:19:07.871Z,79068.23
2019-02-12T09:22:14.024Z,79076.28
2019-02-12T09:25:52.126Z,79056.17
2019-02-12T09:29:31.352Z,79030.02
2019-02-12T09:32:52.445Z,78988.78
2019-02-12T09:36:22.308Z,78980.73
2019-02-12T09:39:26.988Z,78966.65
2019-02-12T09:42:54.812Z,78968.66
2019-02-12T09:46:05.168Z,78958.60
2019-02-12T09:49:27.271Z,78910.33
2019-02-12T09:52:57.443Z,78911.33
2019-02-12T09:55:47.524Z,78855.01
2019-02-12T09:58:49.666Z,78848.98
2019-02-12T10:02:17.527Z,78845.95
2019-02-12T10:05:27.400Z,78845.95
2019-02-12T10:09:09.282Z,78839.92
2019-02-12T10:12:20.632Z,78841.94
2019-02-12T10:15:50.974Z,78823.83
2019-02-12T10:19:03.340Z,78834.89
2019-02-12T10:22:08.539Z,78821.82
2019-02-12T10:25:18.340Z,78832.88
2019-02-12T10:28:25.743Z,78839.92
2019-02-12T10:31:41.957Z,78796.67
2019-02-12T10:34:13.810Z,78743.38
2019-02-12T10:36:45.222Z,78712.20
2019-02-12T10:39:17.490Z,78737.34
2019-02-12T10:41:48.821Z,78747.40
2019-02-12T10:44:20.341Z,78729.30
2019-02-12T10:46:51.754Z,78721.25
2019-02-12T10:49:23.076Z,78749.41
2019-02-12T10:51:54.434Z,78759.47
2019-02-12T10:54:28.040Z,78747.40
2019-02-12T10:57:01.848Z,78798.69
2019-02-12T10:59:33.168Z,78810.75
2019-02-12T11:02:04.450Z,78793.66
2019-02-12T11:04:35.850Z,78774.55
2019-02-12T11:07:07.135Z,78770.53
2019-02-12T11:09:38.492Z,78801.70
2019-02-12T11:12:09.738Z,78802.71
2019-02-12T11:14:40.965Z,78805.73
2019-02-12T11:17:12.223Z,78800.70
2019-02-12T11:19:43.477Z,78767.52
2019-02-12T11:22:14.829Z,78762.48
2019-02-12T11:24:46.111Z,78751.42
2019-02-12T11:27:17.482Z,78730.30
2019-02-12T11:29:48.765Z,78702.14
2019-02-12T11:32:20.024Z,78704.16
2019-02-12T11:34:51.328Z,78693.09
2019-02-12T11:37:22.626Z,78666.94
2019-02-12T11:39:53.873Z,78652.86
2019-02-12T11:42:25.532Z,78620.68
2019-02-12T11:44:56.770Z,78604.59
2019-02-12T11:47:28.027Z,78606.59
2019-02-12T11:49:59.331Z,78627.72
2019-02-12T11:52:30.679Z,78639.78
2019-02-12T11:55:01.969Z,78620.68
2019-02-12T11:57:33.212Z,78608.61
2019-02-12T12:00:05.792Z,78626.71
2019-02-12T12:02:41.877Z,78649.84
2019-02-12T12:05:11.363Z,78622.69
2019-02-12T12:07:42.525Z,78625.70
2019-02-12T12:10:14.059Z,78647.83
2019-02-12T12:12:45.327Z,78641.80
2019-02-12T12:15:16.935Z,78650.84
2019-02-12T12:17:48.156Z,78663.92
2019-02-12T12:20:19.456Z,78631.73
2019-02-12T12:22:50.773Z,78628.72
2019-02-12T12:25:22.073Z,78597.55
2019-02-12T12:27:53.419Z,78621.69
2019-02-12T12:30:24.688Z,78619.67
2019-02-12T12:32:56.594Z,78606.59
2019-02-12T12:35:27.959Z,78629.73
2019-02-12T12:37:59.219Z,78626.71
2019-02-12T12:40:30.485Z,78642.80
2019-02-12T12:43:01.769Z,78641.80
2019-02-12T12:45:33.057Z,78645.82
2019-02-12T12:48:04.521Z,78659.91
2019-02-12T12:50:35.802Z,78661.91
2019-02-12T12:53:06.999Z,78677.00
2019-02-12T12:55:38.337Z,78684.03
2019-02-12T12:58:09.624Z,78684.03
2019-02-12T13:00:40.899Z,78704.16
2019-02-12T13:03:13.508Z,78716.22
2019-02-12T13:05:44.933Z,78712.20
2019-02-12T13:08:16.299Z,78726.28
2019-02-12T13:10:47.564Z,78708.17
2019-02-12T13:13:18.827Z,78692.08
2019-02-12T13:15:50.078Z,78673.98
2019-02-12T13:18:21.505Z,78677.00
2019-02-12T13:20:52.740Z,78672.97
2019-02-12T13:23:24.128Z,78649.84
2019-02-12T13:25:55.532Z,78629.73
2019-02-12T13:28:26.768Z,78633.75
2019-02-12T13:30:58.097Z,78624.70
2019-02-12T13:33:30.598Z,78609.61
2019-02-12T13:36:02.152Z,78595.53
2019-02-12T13:38:34.245Z,78593.52
2019-02-12T13:41:05.545Z,78561.34
2019-02-12T13:43:36.796Z,78557.32
2019-02-12T13:46:08.149Z,78577.44
2019-02-12T13:48:39.530Z,78571.41
2019-02-12T13:51:10.753Z,78573.41
2019-02-12T13:53:42.003Z,78584.47
2019-02-12T13:56:13.302Z,78577.44
2019-02-12T13:58:44.610Z,78579.45
2019-02-12T14:01:15.855Z,78567.38
2019-02-12T14:03:47.396Z,78586.48
2019-02-12T14:06:18.665Z,78595.53
2019-02-12T14:08:49.999Z,78602.58
2019-02-12T14:11:21.346Z,78607.60
2019-02-12T14:13:52.685Z,78594.53
2019-02-12T14:16:23.935Z,78604.59
2019-02-12T14:18:55.296Z,78599.56
2019-02-12T14:21:26.594Z,78604.59
2019-02-12T14:23:58.070Z,78610.63
2019-02-12T14:26:29.429Z,78618.67
2019-02-12T14:29:00.753Z,78601.57
2019-02-12T14:31:32.036Z,78593.52
2019-02-12T14:34:03.327Z,78574.42
2019-02-12T14:36:34.624Z,78566.38
2019-02-12T14:39:06.809Z,78558.33
2019-02-12T14:41:38.087Z,78549.28
2019-02-12T14:44:09.403Z,78524.13
2019-02-12T14:46:40.800Z,78539.22
2019-02-12T14:49:12.122Z,78551.28
2019-02-12T14:51:43.512Z,78550.28
2019-02-12T14:54:14.876Z,78564.36
2019-02-12T14:56:46.133Z,78563.35
2019-02-12T14:59:17.281Z,78579.45
2019-02-12T15:01:48.730Z,78575.42
2019-02-12T15:04:20.688Z,78575.42
2019-02-12T15:06:52.038Z,78583.47
2019-02-12T15:09:23.530Z,78600.56
2019-02-12T15:11:54.900Z,78595.53
2019-02-12T15:14:29.310Z,78597.55
2019-02-12T15:17:00.704Z,78601.57
2019-02-12T15:19:31.989Z,78607.60
2019-02-12T15:22:03.322Z,78622.69
2019-02-12T15:24:34.526Z,78625.70
2019-02-12T15:27:06.113Z,78636.77
2019-02-12T15:29:37.483Z,78644.81
2019-02-12T15:32:08.878Z,78651.85
2019-02-12T15:34:40.366Z,78665.94
2019-02-12T15:37:11.664Z,78671.97
2019-02-12T15:39:43.338Z,78687.05
2019-02-12T15:42:14.694Z,78692.08
2019-02-12T15:44:46.035Z,78707.17
2019-02-12T15:47:17.345Z,78706.16
2019-02-12T15:49:48.579Z,78712.20
2019-02-12T15:52:19.884Z,78726.28
2019-02-12T15:54:51.244Z,78728.29
2019-02-12T15:57:24.859Z,78747.40
2019-02-12T15:59:56.227Z,78745.39
2019-02-12T16:02:27.723Z,78751.42
2019-02-12T16:04:58.936Z,78776.56
2019-02-12T16:07:30.337Z,78776.56
2019-02-12T16:10:02.040Z,78782.59
2019-02-12T16:12:33.326Z,78774.55
2019-02-12T16:15:04.682Z,78789.64
2019-02-12T16:17:37.375Z,78807.73
2019-02-12T16:20:10.167Z,78825.84
2019-02-12T16:22:41.387Z,78830.88
2019-02-12T16:25:25.831Z,78840.93
2019-02-12T16:27:57.196Z,78837.91
2019-02-12T16:30:28.522Z,78854.00
2019-02-12T16:32:59.842Z,78870.09
2019-02-12T16:35:31.102Z,78872.11
2019-02-12T16:38:14.377Z,78890.21
2019-02-12T16:40:45.651Z,78900.27
2019-02-12T16:43:17.060Z,78885.19
2019-02-12T16:45:58.113Z,78911.33
2019-02-12T16:48:29.408Z,78932.45
2019-02-12T16:51:00.646Z,78927.42
2019-02-12T16:53:32.109Z,78940.50
2019-02-12T16:56:08.301Z,78938.48
2019-02-12T16:58:36.371Z,78942.52
2019-02-12T17:01:07.653Z,78967.66
2019-02-12T17:03:38.946Z,78962.63
2019-02-12T17:06:11.835Z,78973.69
2019-02-12T17:08:43.144Z,78985.76
2019-02-12T17:11:14.392Z,79000.84
2019-02-12T17:13:45.722Z,78986.77
2019-02-12T17:16:17.000Z,78996.83
2019-02-12T17:18:48.263Z,79008.89
2019-02-12T17:21:19.559Z,79043.09
2019-02-12T17:23:50.836Z,79047.11
2019-02-12T17:26:22.123Z,79062.20
2019-02-12T17:28:53.474Z,79078.30
2019-02-12T17:31:24.691Z,79094.39
2019-02-12T17:33:55.980Z,79110.48
2019-02-12T17:36:27.299Z,79128.59
2019-02-12T17:38:58.647Z,79134.63
2019-02-12T17:41:30.086Z,79142.66
2019-02-12T17:44:01.275Z,79157.75
2019-02-12T17:46:32.591Z,79161.78
2019-02-12T17:49:03.876Z,79161.78
2019-02-12T17:51:35.246Z,79176.87
2019-02-12T17:54:06.511Z,79176.87
2019-02-12T17:56:37.812Z,79193.97
2019-02-12T17:59:08.976Z,79188.94
2019-02-12T18:01:40.570Z,79205.03
2019-02-12T18:04:11.926Z,79212.07
2019-02-12T18:06:43.491Z,79218.11
2019-02-12T18:09:14.837Z,79221.13
2019-02-12T18:11:46.179Z,79202.02
2019-02-12T18:14:17.536Z,79232.19
2019-02-12T18:16:48.858Z,79226.16
2019-02-12T18:19:20.255Z,79222.13
2019-02-12T18:21:51.489Z,79224.14
2019-02-12T18:24:22.851Z,79236.21
2019-02-12T18:26:54.238Z,79233.19
2019-02-12T18:29:25.616Z,79235.20
2019-02-12T18:31:56.933Z,79239.23
2019-02-12T18:34:28.455Z,79245.27
2019-02-12T18:36:59.877Z,79249.28
2019-02-12T18:39:42.963Z,79238.22
2019-02-12T18:42:14.517Z,79234.20
2019-02-12T18:44:45.785Z,79234.20
2019-02-12T18:47:17.030Z,79254.31
2019-02-12T18:49:48.354Z,79246.27
2019-02-12T18:52:19.698Z,79224.14
2019-02-12T18:54:50.950Z,79260.35
2019-02-12T18:57:24.667Z,79265.38
2019-02-12T18:59:55.912Z,79251.30
2019-02-12T19:02:27.911Z,79253.31
2019-02-12T19:04:59.198Z,79268.40
2019-02-12T19:07:30.650Z,79265.38
2019-02-12T19:10:01.942Z,79280.47
2019-02-12T19:12:33.305Z,79268.40
2019-02-12T19:15:05.657Z,79265.38
2019-02-12T19:17:37.099Z,79249.28
2019-02-12T19:20:10.725Z,79249.28
2019-02-12T19:22:42.016Z,79243.25
2019-02-12T19:25:13.510Z,79264.38
2019-02-12T19:27:44.782Z,79259.34
2019-02-12T19:30:16.782Z,79263.38
2019-02-12T19:32:48.043Z,79274.44
2019-02-12T19:35:19.373Z,79289.52
2019-02-12T19:37:50.633Z,79309.64
2019-02-12T19:40:21.993Z,79327.75
2019-02-12T19:42:53.289Z,79345.85
2019-02-12T19:45:24.589Z,79355.91
2019-02-12T19:47:55.972Z,79360.94
2019-02-12T19:50:27.297Z,79378.04
2019-02-12T19:52:58.654Z,79376.03
2019-02-12T19:55:30.040Z,79390.11
2019-02-12T19:58:01.497Z,79383.07
2019-02-12T20:00:32.869Z,79378.04
2019-02-12T20:03:04.213Z,79347.86
2019-02-12T20:05:35.418Z,79309.64
2019-02-12T20:08:06.707Z,79284.49
2019-02-12T20:10:38.020Z,79295.55
2019-02-12T20:13:09.415Z,79306.63
2019-02-12T20:15:40.732Z,79321.70
2019-02-12T20:18:12.149Z,79325.73
2019-02-12T20:20:43.438Z,79326.73
2019-02-12T20:23:14.793Z,79343.84
2019-02-12T20:25:46.101Z,79354.91
2019-02-12T20:28:17.383Z,79346.86
2019-02-12T20:30:48.776Z,79359.94
2019-02-12T20:33:20.100Z,79331.77
2019-02-12T20:35:51.364Z,79343.84
2019-02-12T20:38:22.738Z,79341.83
2019-02-12T20:40:54.233Z,79359.94
2019-02-12T20:43:25.521Z,79304.61
2019-02-12T20:45:56.832Z,79299.58
2019-02-12T20:48:28.190Z,79263.38
2019-02-12T20:50:59.505Z,79235.20
2019-02-12T20:53:30.780Z,79231.18
2019-02-12T20:56:02.054Z,79221.13
2019-02-12T20:58:33.349Z,79231.18
2019-02-12T21:01:04.717Z,79229.17
2019-02-12T21:03:36.104Z,79214.08
2019-02-12T21:06:11.688Z,79184.91
2019-02-12T21:08:44.024Z,79176.87
2019-02-12T21:11:15.576Z,79178.88
2019-02-12T21:13:46.856Z,79170.83
2019-02-12T21:16:18.199Z,79158.76
2019-02-12T21:18:49.741Z,79144.67
2019-02-12T21:21:21.058Z,79133.61
2019-02-12T21:23:52.373Z,79123.56
2019-02-12T21:26:23.737Z,79137.64
2019-02-12T21:28:55.027Z,79156.75
2019-02-12T21:31:26.315Z,79138.64
2019-02-12T21:33:57.662Z,79138.64
2019-02-12T21:36:29.426Z,79136.63
2019-02-12T21:39:00.770Z,79137.64
2019-02-12T21:41:32.115Z,79114.50
2019-02-12T21:44:03.533Z,79114.50
2019-02-12T21:46:34.902Z,79105.45
2019-02-12T21:49:06.192Z,79100.42
2019-02-12T21:51:41.135Z,79089.36
2019-02-12T21:54:12.554Z,79083.33
2019-02-12T21:56:43.863Z,79094.39
2019-02-12T21:59:15.177Z,79094.39
2019-02-12T22:01:46.450Z,79087.34
2019-02-12T22:04:17.821Z,79083.33
2019-02-12T22:06:49.142Z,79072.26
2019-02-12T22:09:20.423Z,79049.13
2019-02-12T22:11:51.790Z,79059.19
2019-02-12T22:14:23.047Z,79054.16
2019-02-12T22:16:54.406Z,79057.17
2019-02-12T22:19:28.548Z,79058.18
2019-02-12T22:21:59.922Z,79073.27
2019-02-12T22:24:31.156Z,79065.22
2019-02-12T22:27:02.478Z,79081.31
2019-02-12T22:29:33.726Z,79087.34
2019-02-12T22:32:04.994Z,79087.34
2019-02-12T22:34:36.282Z,79106.45
2019-02-12T22:37:07.610Z,79106.45
2019-02-12T22:39:38.983Z,79107.47
2019-02-12T22:42:10.322Z,79122.55
2019-02-12T22:44:41.656Z,79126.58
2019-02-12T22:47:12.917Z,79148.70
2019-02-12T22:49:44.346Z,79152.73
2019-02-12T22:52:15.612Z,79166.80
2019-02-12T22:54:49.273Z,79140.66
2019-02-12T22:57:20.509Z,79131.60
2019-02-12T22:59:51.876Z,79154.73
2019-02-12T23:02:23.036Z,79143.67
2019-02-12T23:04:54.323Z,79176.87
2019-02-12T23:07:25.710Z,79178.88
2019-02-12T23:09:56.949Z,79172.84
2019-02-12T23:12:32.673Z,79184.91
2019-02-12T23:15:24.385Z,79192.96
2019-02-12T23:18:01.090Z,79190.95
2019-02-12T23:20:40.270Z,79186.92
2019-02-12T23:23:23.599Z,79215.09
2019-02-12T23:25:59.747Z,79213.08
2019-02-12T23:28:39.706Z,79203.02
2019-02-12T23:31:14.586Z,79210.06
2019-02-12T23:34:06.584Z,79206.03
2019-02-12T23:36:50.808Z,79214.08
2019-02-12T23:39:36.196Z,79205.03
2019-02-12T23:42:18.906Z,79212.07
2019-02-12T23:44:50.493Z,79218.11
2019-02-12T23:47:21.751Z,79224.14
2019-02-12T23:49:53.096Z,79213.08
2019-02-12T23:52:31.824Z,79222.13
2019-02-12T23:55:03.082Z,79223.13
2019-02-12T23:57:34.403Z,79212.07
